createdAt,value
2023-03-21T00:01:05.549Z,5.13
2023-03-21T00:03:38.791Z,5.00
2023-03-21T00:06:13.501Z,4.50
2023-03-21T00:08:46.670Z,4.00
2023-03-21T00:11:19.919Z,3.37
2023-03-21T00:13:53.435Z,2.60
2023-03-21T00:16:31.155Z,3.23
2023-03-21T00:19:06.293Z,3.73
2023-03-21T00:21:59.501Z,4.20
2023-03-21T00:24:35.944Z,4.67
2023-03-21T00:27:41.319Z,3.83
2023-03-21T00:30:02.342Z,3.83
2023-03-21T00:32:39.817Z,4.80
2023-03-21T00:36:06.106Z,4.40
2023-03-21T00:38:09.912Z,5.43
2023-03-21T00:40:48.849Z,4.20
2023-03-21T00:43:30.082Z,4.40
2023-03-21T00:46:03.380Z,3.90
2023-03-21T00:48:36.721Z,3.90
2023-03-21T00:51:15.449Z,3.77
2023-03-21T00:53:48.621Z,4.13
2023-03-21T00:56:21.843Z,4.10
2023-03-21T00:58:55.210Z,4.33
2023-03-21T01:01:31.955Z,6.07
2023-03-21T01:04:07.603Z,4.70
2023-03-21T01:06:42.052Z,5.63
2023-03-21T01:09:17.483Z,4.83
2023-03-21T01:11:50.758Z,6.93
2023-03-21T01:14:24.296Z,6.90
2023-03-21T01:16:57.503Z,5.47
2023-03-21T01:19:44.800Z,9.77
2023-03-21T01:22:24.374Z,5.60
2023-03-21T01:25:08.846Z,6.47
2023-03-21T01:27:45.473Z,7.53
2023-03-21T01:30:22.718Z,9.33
2023-03-21T01:32:57.410Z,5.10
2023-03-21T01:35:37.508Z,6.87
2023-03-21T01:38:14.412Z,5.70
2023-03-21T01:40:48.555Z,8.50
2023-03-21T01:43:26.897Z,5.00
2023-03-21T01:46:00.182Z,4.90
2023-03-21T01:48:33.864Z,6.53
2023-03-21T01:51:07.339Z,5.77
2023-03-21T01:53:41.552Z,8.43
2023-03-21T01:56:18.577Z,8.83
2023-03-21T01:58:55.177Z,9.27
2023-03-21T02:01:28.418Z,6.17
2023-03-21T02:04:03.827Z,7.43
2023-03-21T02:06:40.747Z,5.77
2023-03-21T02:09:15.548Z,5.30
2023-03-21T02:11:48.868Z,5.60
2023-03-21T02:14:29.036Z,8.43
2023-03-21T02:17:12.923Z,8.37
2023-03-21T02:20:08.720Z,6.33
2023-03-21T02:22:51.281Z,7.63
2023-03-21T02:25:43.303Z,6.13
2023-03-21T02:28:25.730Z,8.17
2023-03-21T02:31:02.023Z,6.33
2023-03-21T02:33:50.462Z,5.57
2023-03-21T02:36:30.068Z,7.73
2023-03-21T02:39:14.143Z,8.43
2023-03-21T02:42:06.534Z,6.50
2023-03-21T02:44:48.805Z,4.50
2023-03-21T02:47:34.860Z,6.00
2023-03-21T02:50:13.088Z,4.30
2023-03-21T02:52:47.502Z,5.27
2023-03-21T02:55:23.326Z,5.00
2023-03-21T02:57:59.257Z,5.43
2023-03-21T03:00:36.026Z,4.90
2023-03-21T03:03:14.081Z,3.93
2023-03-21T03:05:53.287Z,8.50
2023-03-21T03:08:56.092Z,4.47
2023-03-21T03:11:36.048Z,4.20
2023-03-21T03:14:39.965Z,3.77
2023-03-21T03:17:14.438Z,3.33
2023-03-21T03:20:16.141Z,3.10
2023-03-21T03:22:56.046Z,4.20
2023-03-21T03:25:42.841Z,6.10
2023-03-21T03:28:19.042Z,4.20
2023-03-21T03:31:07.384Z,3.37
2023-03-21T03:33:43.834Z,3.57
2023-03-21T03:36:31.205Z,5.03
2023-03-21T03:39:08.901Z,3.50
2023-03-21T03:42:12.446Z,2.57
2023-03-21T03:44:40.269Z,6.27
2023-03-21T03:47:31.497Z,6.17
2023-03-21T03:50:09.067Z,3.77
2023-03-21T03:52:57.463Z,3.30
2023-03-21T03:55:34.498Z,4.37
2023-03-21T03:58:19.661Z,3.07
2023-03-21T04:00:56.174Z,4.03
2023-03-21T04:03:32.396Z,4.90
2023-03-21T04:06:12.544Z,3.77
2023-03-21T04:08:45.833Z,3.87
2023-03-21T04:11:19.134Z,3.53
2023-03-21T04:13:52.378Z,4.13
2023-03-21T04:16:25.928Z,4.70
2023-03-21T04:18:59.116Z,4.03
2023-03-21T04:21:32.678Z,3.10
2023-03-21T04:24:07.415Z,2.50
2023-03-21T04:26:40.984Z,3.43
2023-03-21T04:29:14.266Z,3.17
2023-03-21T04:31:49.913Z,4.60
2023-03-21T04:34:24.062Z,2.70
2023-03-21T04:36:57.713Z,1.43
2023-03-21T04:39:31.473Z,2.20
2023-03-21T04:42:05.234Z,2.30
2023-03-21T04:44:38.448Z,1.70
2023-03-21T04:47:13.265Z,1.50
2023-03-21T04:49:50.074Z,2.50
2023-03-21T04:52:25.236Z,4.10
2023-03-21T04:54:58.611Z,2.60
2023-03-21T04:57:31.770Z,2.27
2023-03-21T05:00:14.176Z,3.23
2023-03-21T05:02:48.160Z,2.60
2023-03-21T05:05:21.343Z,3.50
2023-03-21T05:07:54.531Z,3.23
2023-03-21T05:10:27.692Z,3.03
2023-03-21T05:13:00.995Z,2.53
2023-03-21T05:15:34.787Z,2.03
2023-03-21T05:18:11.068Z,4.73
2023-03-21T05:20:44.263Z,3.03
2023-03-21T05:23:18.524Z,1.60
2023-03-21T05:25:51.854Z,2.73
2023-03-21T05:28:31.424Z,2.00
2023-03-21T05:31:04.992Z,3.57
2023-03-21T05:33:38.241Z,2.90
2023-03-21T05:36:11.739Z,3.67
2023-03-21T05:38:46.504Z,3.40
2023-03-21T05:41:21.340Z,3.90
2023-03-21T05:43:54.580Z,3.17
2023-03-21T05:46:28.084Z,3.60
2023-03-21T05:49:01.290Z,2.10
2023-03-21T05:51:34.526Z,3.13
2023-03-21T05:54:07.958Z,4.47
2023-03-21T05:56:41.901Z,2.20
2023-03-21T05:59:16.502Z,3.43
2023-03-21T06:01:49.712Z,2.17
2023-03-21T06:04:22.950Z,3.60
2023-03-21T06:06:56.140Z,3.37
2023-03-21T06:09:29.400Z,2.60
2023-03-21T06:12:02.785Z,2.40
2023-03-21T06:14:36.013Z,3.60
2023-03-21T06:17:09.228Z,3.93
2023-03-21T06:19:42.585Z,1.83
2023-03-21T06:22:15.776Z,3.47
2023-03-21T06:24:49.935Z,2.90
2023-03-21T06:27:23.263Z,3.00
2023-03-21T06:29:58.231Z,2.63
2023-03-21T06:32:31.425Z,2.50
2023-03-21T06:35:04.991Z,3.83
2023-03-21T06:37:38.339Z,3.43
2023-03-21T06:40:11.992Z,2.80
2023-03-21T06:42:45.264Z,1.87
2023-03-21T06:45:18.562Z,3.93
2023-03-21T06:47:51.821Z,2.67
2023-03-21T06:50:25.161Z,3.70
2023-03-21T06:52:59.350Z,4.00
2023-03-21T06:55:32.736Z,3.90
2023-03-21T06:58:06.398Z,2.50
2023-03-21T07:00:39.764Z,2.47
2023-03-21T07:03:13.466Z,1.93
2023-03-21T07:05:46.714Z,2.90
2023-03-21T07:08:19.887Z,3.53
2023-03-21T07:10:56.202Z,2.57
2023-03-21T07:13:29.399Z,3.13
2023-03-21T07:16:02.641Z,2.07
2023-03-21T07:18:36.057Z,2.50
2023-03-21T07:21:09.279Z,2.77
2023-03-21T07:23:42.464Z,3.30
2023-03-21T07:26:16.146Z,3.27
2023-03-21T07:28:49.410Z,4.10
2023-03-21T07:31:25.947Z,3.40
2023-03-21T07:33:59.200Z,2.93
2023-03-21T07:36:32.356Z,3.40
2023-03-21T07:39:06.316Z,2.60
2023-03-21T07:41:39.505Z,4.73
2023-03-21T07:44:12.675Z,4.17
2023-03-21T07:46:45.918Z,3.83
2023-03-21T07:49:19.185Z,2.73
2023-03-21T07:51:52.413Z,2.47
2023-03-21T07:54:25.583Z,4.03
2023-03-21T07:56:58.779Z,3.20
2023-03-21T07:59:31.937Z,3.07
2023-03-21T08:02:05.365Z,2.93
2023-03-21T08:04:39.058Z,3.73
2023-03-21T08:07:12.728Z,2.83
2023-03-21T08:09:45.939Z,4.30
2023-03-21T08:12:19.153Z,3.43
2023-03-21T08:14:52.334Z,2.60
2023-03-21T08:17:25.658Z,4.03
2023-03-21T08:19:58.868Z,3.13
2023-03-21T08:22:32.069Z,3.50
2023-03-21T08:25:06.015Z,2.60
2023-03-21T08:27:39.223Z,3.00
2023-03-21T08:30:13.237Z,4.33
2023-03-21T08:32:46.439Z,3.30
2023-03-21T08:35:20.440Z,1.90
2023-03-21T08:37:53.610Z,1.73
2023-03-21T08:40:27.202Z,2.30
2023-03-21T08:43:00.443Z,2.90
2023-03-21T08:45:33.612Z,3.20
2023-03-21T08:48:06.925Z,2.03
2023-03-21T08:50:40.421Z,2.33
2023-03-21T08:53:13.898Z,2.13
2023-03-21T08:55:47.151Z,3.83
2023-03-21T08:58:20.977Z,2.47
2023-03-21T09:00:54.166Z,2.90
2023-03-21T09:03:27.438Z,2.77
2023-03-21T09:06:00.797Z,3.30
2023-03-21T09:08:34.021Z,2.27
2023-03-21T09:11:07.292Z,2.83
2023-03-21T09:13:40.789Z,3.07
2023-03-21T09:16:14.133Z,2.10
2023-03-21T09:18:48.900Z,2.30
2023-03-21T09:21:23.954Z,2.00
2023-03-21T09:23:59.392Z,2.40
2023-03-21T09:26:32.878Z,2.83
2023-03-21T09:29:06.202Z,2.10
2023-03-21T09:31:40.033Z,2.00
2023-03-21T09:34:15.249Z,1.90
2023-03-21T09:36:48.547Z,2.30
2023-03-21T09:39:22.152Z,2.47
2023-03-21T09:42:03.525Z,2.07
2023-03-21T09:44:48.652Z,2.63
2023-03-21T09:47:25.128Z,2.23
2023-03-21T09:50:20.508Z,2.27
2023-03-21T09:53:05.301Z,2.20
2023-03-21T09:55:40.325Z,1.37
2023-03-21T09:58:20.488Z,1.80
2023-03-21T10:00:56.698Z,1.60
2023-03-21T10:03:37.356Z,1.80
2023-03-21T10:06:15.191Z,1.43
2023-03-21T10:08:49.564Z,1.23
2023-03-21T10:11:25.579Z,2.03
2023-03-21T10:14:07.635Z,2.03
2023-03-21T10:17:04.179Z,2.23
2023-03-21T10:19:37.412Z,2.10
2023-03-21T10:22:10.597Z,1.97
2023-03-21T10:24:43.796Z,1.70
2023-03-21T10:27:17.136Z,1.87
2023-03-21T10:29:53.136Z,1.90
2023-03-21T10:32:26.427Z,1.90
2023-03-21T10:34:59.845Z,1.87
2023-03-21T10:37:33.216Z,1.70
2023-03-21T10:40:08.781Z,1.83
2023-03-21T10:42:43.821Z,3.17
2023-03-21T10:45:20.694Z,1.50
2023-03-21T10:47:55.441Z,1.20
2023-03-21T10:50:30.320Z,1.20
2023-03-21T10:53:03.758Z,2.83
2023-03-21T10:55:41.322Z,2.40
2023-03-21T10:58:27.111Z,1.40
2023-03-21T11:01:03.035Z,1.40
2023-03-21T11:03:43.503Z,1.57
2023-03-21T11:06:22.977Z,2.20
2023-03-21T11:08:57.736Z,1.80
2023-03-21T11:11:41.432Z,2.30
2023-03-21T11:14:33.486Z,1.87
2023-03-21T11:17:19.115Z,1.20
2023-03-21T11:19:53.534Z,1.93
2023-03-21T11:22:30.056Z,1.70
2023-03-21T11:25:06.480Z,1.77
2023-03-21T11:27:48.882Z,1.87
2023-03-21T11:30:23.515Z,2.00
2023-03-21T11:33:06.211Z,1.80
2023-03-21T11:35:40.222Z,1.50
2023-03-21T11:38:25.949Z,1.90
2023-03-21T11:41:00.902Z,2.10
2023-03-21T11:43:39.020Z,1.73
2023-03-21T11:46:14.824Z,1.70
2023-03-21T11:48:51.079Z,2.53
2023-03-21T11:51:27.333Z,2.40
2023-03-21T11:54:00.517Z,1.80
2023-03-21T11:56:35.513Z,2.00
2023-03-21T11:59:08.785Z,2.77
2023-03-21T12:02:00.548Z,2.60
2023-03-21T12:04:33.764Z,2.00
2023-03-21T12:07:18.832Z,2.10
2023-03-21T12:09:58.475Z,2.80
2023-03-21T12:12:41.170Z,2.20
2023-03-21T12:15:17.782Z,1.67
2023-03-21T12:17:59.400Z,2.00
2023-03-21T12:20:38.675Z,2.80
2023-03-21T12:23:34.211Z,2.20
2023-03-21T12:26:27.850Z,2.37
2023-03-21T12:29:08.699Z,2.20
2023-03-21T12:31:42.332Z,2.00
2023-03-21T12:34:15.831Z,1.90
2023-03-21T12:36:55.657Z,2.10
2023-03-21T12:39:33.104Z,1.97
2023-03-21T12:42:34.490Z,2.30
2023-03-21T12:45:18.042Z,1.53
2023-03-21T12:47:56.819Z,1.70
2023-03-21T12:50:38.756Z,1.90
2023-03-21T12:53:31.098Z,2.10
2023-03-21T12:56:08.287Z,2.20
2023-03-21T12:58:51.807Z,2.27
2023-03-21T13:01:25.331Z,2.40
2023-03-21T13:03:58.576Z,1.70
2023-03-21T13:06:32.227Z,2.43
2023-03-21T13:09:16.058Z,2.50
2023-03-21T13:11:51.754Z,2.50
2023-03-21T13:14:27.715Z,2.10
2023-03-21T13:17:22.695Z,2.03
2023-03-21T13:20:16.304Z,3.10
2023-03-21T13:22:49.497Z,2.30
2023-03-21T13:25:25.015Z,2.20
2023-03-21T13:28:03.303Z,1.73
2023-03-21T13:30:37.054Z,1.50
2023-03-21T13:33:14.894Z,1.40
2023-03-21T13:35:56.616Z,1.40
2023-03-21T13:38:30.599Z,1.50
2023-03-21T13:41:21.037Z,1.90
2023-03-21T13:44:03.638Z,1.57
2023-03-21T13:46:50.597Z,2.27
2023-03-21T13:49:31.537Z,1.93
2023-03-21T13:52:10.981Z,1.60
2023-03-21T13:54:54.553Z,1.40
2023-03-21T13:57:27.812Z,2.10
2023-03-21T14:00:17.654Z,1.87
2023-03-21T14:02:56.397Z,1.17
2023-03-21T14:05:29.727Z,1.63
2023-03-21T14:08:15.456Z,1.20
2023-03-21T14:10:58.972Z,1.57
2023-03-21T14:13:35.060Z,1.10
2023-03-21T14:16:13.405Z,1.20
2023-03-21T14:18:54.257Z,1.50
2023-03-21T14:21:30.285Z,1.03
2023-03-21T14:24:05.520Z,2.20
2023-03-21T14:26:41.660Z,2.20
2023-03-21T14:29:26.203Z,1.97
2023-03-21T14:32:00.686Z,2.00
2023-03-21T14:34:35.733Z,1.60
2023-03-21T14:37:11.644Z,2.73
2023-03-21T14:39:44.838Z,2.47
2023-03-21T14:42:20.871Z,2.70
2023-03-21T14:44:56.592Z,2.13
2023-03-21T14:47:32.159Z,2.20
2023-03-21T14:50:07.905Z,2.17
2023-03-21T14:52:42.964Z,2.37
2023-03-21T14:55:18.369Z,2.77
2023-03-21T14:57:51.614Z,1.90
2023-03-21T15:00:27.260Z,1.90
2023-03-21T15:03:01.148Z,2.03
2023-03-21T15:05:39.565Z,2.30
2023-03-21T15:08:12.848Z,2.50
2023-03-21T15:11:07.521Z,2.93
2023-03-21T15:13:46.112Z,2.37
2023-03-21T15:16:20.249Z,1.50
2023-03-21T15:18:53.701Z,1.90
2023-03-21T15:21:35.197Z,1.97
2023-03-21T15:24:34.867Z,1.83
2023-03-21T15:27:13.713Z,2.00
2023-03-21T15:29:47.674Z,2.27
2023-03-21T15:32:22.846Z,2.17
2023-03-21T15:34:57.382Z,1.23
2023-03-21T15:37:34.637Z,3.00
2023-03-21T15:40:18.795Z,1.77
2023-03-21T15:42:52.256Z,1.90
2023-03-21T15:45:27.222Z,1.80
2023-03-21T15:48:08.184Z,1.37
2023-03-21T15:50:44.150Z,2.13
2023-03-21T15:53:18.985Z,1.77
2023-03-21T15:55:57.732Z,1.40
2023-03-21T15:58:36.404Z,2.03
2023-03-21T16:01:13.570Z,2.33
2023-03-21T16:03:48.006Z,2.73
2023-03-21T16:06:22.706Z,2.17
2023-03-21T16:09:10.315Z,2.70
2023-03-21T16:11:44.836Z,2.60
2023-03-21T16:14:20.823Z,1.73
2023-03-21T16:16:54.612Z,2.17
2023-03-21T16:19:29.656Z,2.50
2023-03-21T16:22:02.839Z,2.30
2023-03-21T16:24:36.082Z,2.23
2023-03-21T16:27:12.134Z,3.10
2023-03-21T16:29:45.624Z,1.93
2023-03-21T16:32:20.438Z,2.00
2023-03-21T16:34:53.636Z,2.60
2023-03-21T16:37:26.885Z,2.93
2023-03-21T16:40:00.054Z,2.10
2023-03-21T16:42:33.315Z,3.10
2023-03-21T16:45:07.077Z,1.73
2023-03-21T16:47:40.720Z,2.07
2023-03-21T16:50:16.800Z,2.00
2023-03-21T16:52:49.998Z,1.80
2023-03-21T16:55:23.471Z,2.83
2023-03-21T16:57:57.532Z,2.60
2023-03-21T17:00:31.289Z,1.97
2023-03-21T17:03:13.289Z,2.10
2023-03-21T17:05:46.589Z,2.17
2023-03-21T17:08:21.782Z,2.93
2023-03-21T17:10:54.976Z,2.60
2023-03-21T17:13:28.116Z,2.50
2023-03-21T17:16:01.323Z,2.23
2023-03-21T17:18:34.510Z,1.90
2023-03-21T17:21:15.340Z,2.60
2023-03-21T17:23:48.887Z,2.03
2023-03-21T17:26:23.854Z,2.63
2023-03-21T17:28:57.859Z,2.13
2023-03-21T17:31:35.679Z,2.50
2023-03-21T17:34:09.726Z,2.50
2023-03-21T17:36:43.543Z,2.53
2023-03-21T17:39:24.173Z,1.80
2023-03-21T17:41:57.448Z,2.70
2023-03-21T17:44:30.903Z,2.80
2023-03-21T17:47:04.090Z,2.90
2023-03-21T17:49:37.336Z,3.20
2023-03-21T17:52:10.694Z,3.80
2023-03-21T17:54:43.899Z,4.00
2023-03-21T17:57:17.081Z,3.10
2023-03-21T17:59:50.375Z,3.23
2023-03-21T18:02:23.800Z,4.30
2023-03-21T18:04:57.043Z,5.23
2023-03-21T18:08:02.000Z,4.43
2023-03-21T18:10:24.852Z,4.90
2023-03-21T18:12:58.940Z,4.00
2023-03-21T18:15:32.188Z,3.37
2023-03-21T18:18:05.811Z,3.53
2023-03-21T18:20:52.002Z,4.70
2023-03-21T18:23:25.649Z,4.87
2023-03-21T18:25:59.354Z,4.10
2023-03-21T18:28:32.536Z,2.77
2023-03-21T18:31:12.593Z,4.53
2023-03-21T18:33:49.413Z,3.50
2023-03-21T18:36:25.397Z,3.90
2023-03-21T18:38:59.483Z,3.27
2023-03-21T18:41:32.729Z,2.90
2023-03-21T18:44:12.955Z,2.13
2023-03-21T18:46:52.818Z,2.23
2023-03-21T18:52:19.244Z,2.20
2023-03-21T18:54:53.260Z,2.13
2023-03-21T18:57:36.343Z,2.80
2023-03-21T19:00:17.233Z,2.30
2023-03-21T19:02:53.680Z,2.13
2023-03-21T19:05:32.281Z,2.30
2023-03-21T19:08:06.803Z,1.80
2023-03-21T19:10:40.242Z,2.03
2023-03-21T19:13:13.725Z,2.80
2023-03-21T19:15:49.582Z,1.57
2023-03-21T19:18:53.402Z,1.70
2023-03-21T19:21:17.052Z,3.63
2023-03-21T19:24:22.837Z,1.80
2023-03-21T19:26:43.648Z,1.70
2023-03-21T19:29:16.837Z,2.20
2023-03-21T19:31:51.200Z,2.57
2023-03-21T19:34:24.487Z,2.13
2023-03-21T19:36:57.804Z,2.03
2023-03-21T19:39:31.311Z,1.70
2023-03-21T19:42:15.977Z,1.70
2023-03-21T19:44:50.603Z,1.83
2023-03-21T19:47:23.785Z,1.53
2023-03-21T19:52:50.228Z,1.43
2023-03-21T19:55:23.373Z,1.83
2023-03-21T19:57:56.580Z,2.20
2023-03-21T20:00:30.192Z,2.37
2023-03-21T20:03:03.905Z,1.97
2023-03-21T20:05:37.213Z,2.07
2023-03-21T20:08:11.089Z,2.63
2023-03-21T20:10:46.994Z,1.90
2023-03-21T20:13:20.430Z,1.97
2023-03-21T20:15:55.471Z,2.10
2023-03-21T20:18:29.811Z,2.07
2023-03-21T20:21:04.272Z,2.70
2023-03-21T20:23:39.077Z,2.57
2023-03-21T20:26:13.327Z,2.67
2023-03-21T20:28:56.633Z,2.80
2023-03-21T20:31:37.374Z,2.40
2023-03-21T20:34:10.634Z,2.20
2023-03-21T20:36:44.086Z,2.03
2023-03-21T20:39:17.757Z,2.10
2023-03-21T20:41:51.149Z,2.40
2023-03-21T20:44:56.805Z,2.20
2023-03-21T20:47:17.505Z,2.07
2023-03-21T20:49:50.862Z,2.83
2023-03-21T20:55:17.848Z,2.43
2023-03-21T20:57:51.117Z,1.30
2023-03-21T21:00:24.583Z,1.77
2023-03-21T21:02:58.045Z,2.90
2023-03-21T21:05:34.874Z,1.90
2023-03-21T21:08:08.287Z,2.33
2023-03-21T21:11:03.939Z,1.60
2023-03-21T21:13:34.918Z,2.10
2023-03-21T21:16:08.751Z,2.00
2023-03-21T21:18:41.986Z,2.47
2023-03-21T21:21:16.659Z,1.50
2023-03-21T21:23:49.885Z,1.87
2023-03-21T21:26:23.076Z,2.20
2023-03-21T21:28:58.038Z,2.50
2023-03-21T21:31:34.624Z,1.77
2023-03-21T21:34:07.908Z,2.37
2023-03-21T21:36:41.077Z,2.43
2023-03-21T21:39:15.653Z,2.50
2023-03-21T21:41:48.930Z,2.30
2023-03-21T21:44:22.236Z,1.90
2023-03-21T21:46:55.467Z,2.50
2023-03-21T21:49:28.726Z,1.87
2023-03-21T21:52:04.117Z,2.50
2023-03-21T21:54:38.393Z,2.97
2023-03-21T21:57:11.646Z,2.37
2023-03-21T21:59:44.822Z,2.83
2023-03-21T22:02:17.985Z,2.80
2023-03-21T22:04:54.396Z,2.87
2023-03-21T22:07:28.117Z,2.27
2023-03-21T22:10:01.755Z,2.43
2023-03-21T22:12:35.124Z,2.60
2023-03-21T22:15:09.058Z,1.60
2023-03-21T22:17:42.335Z,2.80
2023-03-21T22:20:16.386Z,2.90
2023-03-21T22:22:49.648Z,2.73
2023-03-21T22:25:23.408Z,2.10
2023-03-21T22:27:57.587Z,2.67
2023-03-21T22:30:31.500Z,2.33
2023-03-21T22:33:09.778Z,3.30
2023-03-21T22:35:43.367Z,2.00
2023-03-21T22:38:23.953Z,2.30
2023-03-21T22:41:01.135Z,2.63
2023-03-21T22:43:35.249Z,2.57
2023-03-21T22:46:08.616Z,1.27
2023-03-21T22:48:41.856Z,1.60
2023-03-21T22:51:15.363Z,2.10
2023-03-21T22:53:48.536Z,2.00
2023-03-21T22:56:21.728Z,2.20
2023-03-21T22:58:54.935Z,2.50
2023-03-21T23:01:28.197Z,1.97
2023-03-21T23:04:01.430Z,2.20
2023-03-21T23:06:34.871Z,2.53
2023-03-21T23:09:09.193Z,1.50
2023-03-21T23:11:43.031Z,2.83
2023-03-21T23:14:20.762Z,3.67
2023-03-21T23:16:54.720Z,2.17
2023-03-21T23:19:28.787Z,3.13
2023-03-21T23:22:02.218Z,2.50
2023-03-21T23:24:35.851Z,3.20
2023-03-21T23:27:09.050Z,1.70
2023-03-21T23:29:43.808Z,2.00
2023-03-21T23:32:17.063Z,3.90
2023-03-21T23:34:50.311Z,2.70
2023-03-21T23:37:24.951Z,3.50
2023-03-21T23:39:58.252Z,2.50
2023-03-21T23:42:32.009Z,3.07
2023-03-21T23:45:05.710Z,2.50
2023-03-21T23:47:38.895Z,2.20
2023-03-21T23:50:12.269Z,2.00
2023-03-21T23:52:45.992Z,2.23
2023-03-21T23:55:19.246Z,2.70
2023-03-21T23:57:58.817Z,2.63
